Time;durP1;ratioP1;P1;durP2;ratioP2;P2;SDS_P1;SDS_P2;PMS_P1;PMS_P2;Temp;Humidity;BMP_temperature;BMP_pressure;BME280_temperature;BME280_humidity;BME280_pressure;Samples;Min_cycle;Max_cycle;Signal;HPM_P1;HPM_P2
2023/11/07 00:01:30;;;;;;;1.90;0.20;;;;;;;10.65;100.00;99846.67;88487;279;136140;-66
2023/11/07 00:03:32;;;;;;;0.40;0.30;;;;;;;10.66;100.00;99848.80;88644;279;22517;-66
2023/11/07 00:05:34;;;;;;;0.70;0.30;;;;;;;10.66;100.00;99854.46;88457;276;137691;-66
2023/11/07 00:07:36;;;;;;;0.70;0.30;;;;;;;10.64;100.00;99858.96;88502;279;25087;-66
2023/11/07 00:09:38;;;;;;;0.80;0.30;;;;;;;10.62;100.00;99861.41;88521;279;136222;-63
2023/11/07 00:11:40;;;;;;;0.70;0.30;;;;;;;10.61;100.00;99860.69;88553;279;22542;-65
2023/11/07 00:13:43;;;;;;;2.30;0.40;;;;;;;10.62;100.00;99862.65;88616;272;136931;-66
2023/11/07 00:15:44;;;;;;;0.30;0.30;;;;;;;10.64;100.00;99864.92;88569;277;25042;-65
2023/11/07 00:17:46;;;;;;;1.80;1.60;;;;;;;10.65;100.00;99866.15;88409;272;136816;-66
2023/11/07 00:19:48;;;;;;;3.00;1.20;;;;;;;10.66;100.00;99869.44;88802;279;22524;-63
2023/11/07 00:21:50;;;;;;;1.50;0.40;;;;;;;10.64;100.00;99864.87;88499;271;138275;-67
2023/11/07 00:25:07;;;;;;;0.80;0.20;;;;;;;10.56;100.00;99870.39;86694;306;602747;-65
2023/11/07 00:27:10;;;;;;;0.70;0.40;;;;;;;10.52;100.00;99871.23;87910;290;22533;-65
2023/11/07 00:29:11;;;;;;;1.30;0.20;;;;;;;10.52;100.00;99871.98;87870;290;135474;-65
2023/11/07 00:31:14;;;;;;;1.40;0.30;;;;;;;10.52;100.00;99871.20;88097;288;25109;-64
2023/11/07 00:33:16;;;;;;;2.70;0.20;;;;;;;10.52;100.00;99869.76;88231;288;137367;-64
2023/11/07 00:35:19;;;;;;;2.90;0.50;;;;;;;10.48;100.00;99866.50;88183;290;24174;-66
2023/11/07 00:37:21;;;;;;;2.30;0.30;;;;;;;10.52;100.00;99870.48;88187;288;136228;-66
2023/11/07 00:39:22;;;;;;;2.40;0.60;;;;;;;10.51;100.00;99873.15;87816;288;595637;-67
2023/11/07 00:41:24;;;;;;;0.50;0.20;;;;;;;10.50;100.00;99874.19;88141;280;136686;-66
2023/11/07 00:43:26;;;;;;;1.00;0.40;;;;;;;10.48;100.00;99876.86;88258;282;24286;-64
2023/11/07 00:45:27;;;;;;;3.10;0.90;;;;;;;10.46;100.00;99871.83;88144;286;138312;-63
2023/11/07 00:47:30;;;;;;;0.60;0.30;;;;;;;10.46;100.00;99877.69;88272;279;25087;-64
2023/11/07 00:49:33;;;;;;;2.70;0.20;;;;;;;10.46;100.00;99877.65;88071;280;137875;-64
2023/11/07 00:51:35;;;;;;;2.20;0.30;;;;;;;10.47;100.00;99879.53;88186;287;25220;-63
2023/11/07 00:53:37;;;;;;;0.90;0.30;;;;;;;10.47;100.00;99876.38;87994;287;136257;-62
2023/11/07 00:55:39;;;;;;;1.10;0.20;;;;;;;10.48;100.00;99878.84;88324;280;25172;-63
2023/11/07 00:57:42;;;;;;;1.50;0.40;;;;;;;10.48;100.00;99877.12;88024;280;136558;-64
2023/11/07 00:59:44;;;;;;;1.90;0.40;;;;;;;10.48;100.00;99880.80;88186;283;24170;-64
2023/11/07 01:01:46;;;;;;;0.60;0.50;;;;;;;10.41;100.00;99870.73;88060;288;136760;-64
2023/11/07 01:03:47;;;;;;;0.40;0.30;;;;;;;10.47;100.00;99885.19;88202;287;22539;-63
2023/11/07 01:05:50;;;;;;;1.20;0.30;;;;;;;10.46;100.00;99882.94;87987;280;136925;-67
2023/11/07 01:07:52;;;;;;;1.10;0.30;;;;;;;10.44;100.00;99885.63;88465;280;25084;-64
2023/11/07 01:09:53;;;;;;;2.10;0.40;;;;;;;10.43;100.00;99886.60;88156;287;136615;-64
2023/11/07 01:11:56;;;;;;;0.90;0.60;;;;;;;10.45;100.00;99889.23;88539;288;23755;-67
2023/11/07 01:13:59;;;;;;;1.90;0.30;;;;;;;10.46;100.00;99892.00;88302;288;136509;-64
2023/11/07 01:16:02;;;;;;;0.40;0.30;;;;;;;10.45;100.00;99890.42;88098;288;23987;-67
2023/11/07 01:18:06;;;;;;;1.10;0.40;;;;;;;10.44;100.00;99889.77;88499;279;24983;-62
2023/11/07 01:20:09;;;;;;;0.80;0.40;;;;;;;10.36;100.00;99878.45;88365;282;137712;-64
2023/11/07 01:22:11;;;;;;;1.80;0.60;;;;;;;10.44;100.00;99891.77;88329;286;22478;-64
2023/11/07 01:24:13;;;;;;;1.70;0.50;;;;;;;10.44;100.00;99893.91;88168;283;136868;-65
2023/11/07 01:26:15;;;;;;;1.00;0.30;;;;;;;10.44;100.00;99894.14;88178;281;22541;-67
2023/11/07 01:28:20;;;;;;;4.40;0.30;;;;;;;10.42;100.00;99899.14;88030;285;136846;-64
2023/11/07 01:30:22;;;;;;;2.10;0.50;;;;;;;10.42;100.00;99896.00;88226;286;25216;-65
2023/11/07 01:32:24;;;;;;;1.30;0.30;;;;;;;10.42;100.00;99899.96;88087;283;136241;-66
2023/11/07 01:34:26;;;;;;;0.80;0.40;;;;;;;10.42;100.00;99897.10;88209;282;22608;-65
2023/11/07 01:36:28;;;;;;;3.50;0.50;;;;;;;10.42;100.00;99901.94;88001;287;136762;-65
2023/11/07 01:38:30;;;;;;;1.80;0.30;;;;;;;10.41;100.00;99906.77;88013;288;22600;-64
2023/11/07 01:40:32;;;;;;;20.70;0.70;;;;;;;10.41;100.00;99904.66;88071;286;136639;-64
2023/11/07 01:43:10;;;;;;;0.60;0.30;;;;;;;10.41;100.00;99904.51;88208;287;25174;-65
2023/11/07 01:45:12;;;;;;;0.70;0.30;;;;;;;10.43;100.00;99909.55;88146;286;136636;-69
2023/11/07 01:47:16;;;;;;;0.60;0.20;;;;;;;10.44;100.00;99911.03;88412;277;22622;-66
2023/11/07 01:49:18;;;;;;;2.30;0.70;;;;;;;10.43;100.00;99913.13;88591;282;136688;-66
2023/11/07 01:51:20;;;;;;;1.60;0.50;;;;;;;10.43;100.00;99914.68;88446;285;22537;-67
2023/11/07 01:53:24;;;;;;;1.00;0.30;;;;;;;10.43;100.00;99914.92;88110;286;136504;-64
2023/11/07 01:55:25;;;;;;;7.10;0.50;;;;;;;10.41;100.00;99913.32;88233;286;24139;-63
2023/11/07 01:57:27;;;;;;;3.00;0.80;;;;;;;10.42;100.00;99918.54;88048;284;136187;-68
2023/11/07 01:59:31;;;;;;;1.10;0.80;;;;;;;10.44;100.00;99918.02;88317;286;22627;-62
2023/11/07 02:01:36;;;;;;;1.10;0.60;;;;;;;10.44;100.00;99923.46;88252;287;136089;-65
2023/11/07 02:03:38;;;;;;;2.00;0.80;;;;;;;10.44;100.00;99926.05;88137;281;22533;-64
2023/11/07 02:05:43;;;;;;;2.40;0.40;;;;;;;10.47;100.00;99928.93;88648;278;138019;-65
2023/11/07 02:07:45;;;;;;;2.30;0.40;;;;;;;10.48;100.00;99931.39;88912;282;25143;-63
2023/11/07 02:09:47;;;;;;;2.30;0.80;;;;;;;10.50;100.00;99936.33;88095;284;137091;-65
2023/11/07 02:11:49;;;;;;;3.10;1.80;;;;;;;10.50;100.00;99934.77;88168;280;24063;-65
2023/11/07 02:13:51;;;;;;;5.10;4.00;;;;;;;10.50;100.00;99935.86;88327;282;136584;-65
2023/11/07 02:15:55;;;;;;;4.30;3.80;;;;;;;10.47;100.00;99940.13;88152;279;25300;-65
2023/11/07 02:17:57;;;;;;;3.20;2.80;;;;;;;10.45;100.00;99943.67;88168;278;137241;-66
2023/11/07 02:19:59;;;;;;;2.40;1.90;;;;;;;10.42;100.00;99944.69;88276;286;25267;-64
2023/11/07 02:22:01;;;;;;;2.10;1.20;;;;;;;10.40;100.00;99948.73;88528;281;137881;-65
2023/11/07 02:24:05;;;;;;;1.90;1.00;;;;;;;10.39;100.00;99951.97;88212;285;138179;-64
2023/11/07 02:26:07;;;;;;;0.90;0.70;;;;;;;10.39;100.00;99954.48;88469;283;25112;-64
2023/11/07 02:28:09;;;;;;;1.10;0.60;;;;;;;10.39;100.00;99954.88;88140;278;137324;-62
2023/11/07 02:30:13;;;;;;;3.20;2.10;;;;;;;10.38;100.00;99958.84;88268;282;23861;-65
2023/11/07 02:32:15;;;;;;;2.90;0.50;;;;;;;10.38;100.00;99961.30;88210;283;136433;-65
2023/11/07 02:34:17;;;;;;;1.70;0.60;;;;;;;10.39;100.00;99959.39;88398;285;22638;-63
2023/11/07 02:36:19;;;;;;;1.60;0.60;;;;;;;10.40;100.00;99965.05;88618;281;136669;-66
2023/11/07 02:38:22;;;;;;;3.20;0.60;;;;;;;10.39;100.00;99971.73;88370;277;22544;-65
2023/11/07 02:40:24;;;;;;;2.70;0.60;;;;;;;10.38;100.00;99971.64;88094;287;138438;-64
2023/11/07 02:42:28;;;;;;;2.30;0.80;;;;;;;10.37;100.00;99970.52;88285;284;22481;-65
2023/11/07 02:44:31;;;;;;;0.80;0.40;;;;;;;10.38;100.00;99972.23;88851;281;136832;-62
2023/11/07 02:46:33;;;;;;;2.70;0.50;;;;;;;10.38;100.00;99976.23;88372;276;22577;-63
2023/11/07 02:48:35;;;;;;;8.10;0.90;;;;;;;10.38;100.00;99978.96;88090;282;137148;-65
2023/11/07 02:50:37;;;;;;;1.10;0.80;;;;;;;10.36;100.00;99984.20;88365;282;22537;-65
2023/11/07 02:52:39;;;;;;;1.20;0.50;;;;;;;10.34;100.00;99986.33;88241;280;138859;-65
2023/11/07 02:54:41;;;;;;;1.00;0.50;;;;;;;10.32;100.00;99985.99;88419;284;22547;-64
2023/11/07 02:56:42;;;;;;;3.20;0.90;;;;;;;10.30;100.00;99987.88;88288;276;136746;-66
2023/11/07 02:58:44;;;;;;;4.20;0.50;;;;;;;10.29;100.00;99989.74;88301;282;22602;-63
2023/11/07 03:00:46;;;;;;;2.90;0.50;;;;;;;10.28;100.00;99989.35;88250;278;136469;-66
2023/11/07 03:02:48;;;;;;;1.50;0.90;;;;;;;10.26;100.00;99991.41;88346;276;22630;-65
2023/11/07 03:04:54;;;;;;;1.60;1.10;;;;;;;10.21;100.00;99987.61;88184;277;136641;-64
2023/11/07 03:06:57;;;;;;;1.10;0.50;;;;;;;10.18;100.00;99995.98;88376;284;22532;-65
2023/11/07 03:08:59;;;;;;;1.90;0.70;;;;;;;10.16;100.00;99999.11;88268;278;136622;-64
2023/11/07 03:11:01;;;;;;;2.50;0.40;;;;;;;10.13;100.00;100004.74;88367;285;25084;-64
2023/11/07 03:13:04;;;;;;;2.00;0.50;;;;;;;10.10;100.00;100007.27;88297;281;137251;-68
2023/11/07 03:15:06;;;;;;;0.90;0.70;;;;;;;10.07;100.00;100014.76;88343;276;22702;-66
2023/11/07 03:17:08;;;;;;;3.30;0.50;;;;;;;10.03;100.00;100019.02;88296;284;138439;-64
2023/11/07 03:19:11;;;;;;;2.90;1.50;;;;;;;9.99;100.00;100018.24;88355;278;24052;-63
2023/11/07 03:21:13;;;;;;;1.80;1.10;;;;;;;9.97;100.00;100024.23;88387;277;136530;-67
2023/11/07 03:23:14;;;;;;;2.30;1.50;;;;;;;9.94;100.00;100027.02;88739;279;24049;-62
2023/11/07 03:25:17;;;;;;;1.50;0.50;;;;;;;9.94;100.00;100025.63;88454;281;136753;-67
2023/11/07 03:27:19;;;;;;;0.90;0.30;;;;;;;9.93;100.00;100028.56;88500;279;25245;-64
2023/11/07 03:29:20;;;;;;;1.50;0.70;;;;;;;9.91;100.00;100026.45;88442;277;138017;-64
2023/11/07 03:31:22;;;;;;;3.50;1.00;;;;;;;9.91;100.00;100032.39;88570;273;22530;-62
2023/11/07 03:33:25;;;;;;;2.00;1.30;;;;;;;9.87;100.00;100033.55;88341;282;136654;-63
2023/11/07 03:35:27;;;;;;;3.60;1.20;;;;;;;9.84;100.00;100042.77;88453;273;22534;-64
2023/11/07 03:37:31;;;;;;;2.90;0.50;;;;;;;9.82;100.00;100043.98;91272;282;136572;-65
2023/11/07 03:39:32;;;;;;;1.50;0.90;;;;;;;9.80;100.00;100046.38;90350;280;25233;-66
2023/11/07 03:41:34;;;;;;;4.40;1.10;;;;;;;9.78;100.00;100048.08;88484;273;136675;-66
2023/11/07 03:43:36;;;;;;;2.80;1.00;;;;;;;9.74;100.00;100048.98;88620;273;25122;-66
2023/11/07 03:45:38;;;;;;;0.90;0.60;;;;;;;9.71;100.00;100055.09;88340;278;136353;-66
2023/11/07 03:47:40;;;;;;;1.30;1.20;;;;;;;9.67;100.00;100051.20;88529;273;22553;-67
2023/11/07 03:49:42;;;;;;;1.10;0.60;;;;;;;9.65;100.00;100051.52;88345;282;139037;-65
2023/11/07 03:51:45;;;;;;;1.10;0.60;;;;;;;9.63;100.00;100047.70;88693;277;22530;-65
2023/11/07 03:53:48;;;;;;;2.10;0.90;;;;;;;9.61;100.00;100051.68;88579;280;136930;-65
2023/11/07 03:55:50;;;;;;;1.50;1.40;;;;;;;9.60;100.00;100061.08;88656;273;22554;-65
2023/11/07 03:57:52;;;;;;;1.40;1.30;;;;;;;9.59;100.00;100063.35;88596;280;138040;-67
2023/11/07 03:59:54;;;;;;;1.40;0.80;;;;;;;9.58;100.00;100066.88;88670;276;22534;-65
2023/11/07 04:01:56;;;;;;;2.10;0.90;;;;;;;9.55;100.00;100066.73;88447;280;136576;-67
2023/11/07 04:03:58;;;;;;;1.20;0.70;;;;;;;9.54;100.00;100074.02;88816;273;22538;-69
2023/11/07 04:06:00;;;;;;;5.00;1.50;;;;;;;9.51;100.00;100073.34;88483;273;138159;-65
2023/11/07 04:08:04;;;;;;;2.50;0.80;;;;;;;9.51;100.00;100075.44;88437;272;137171;-67
2023/11/07 04:10:07;;;;;;;2.00;1.50;;;;;;;9.50;100.00;100079.57;88540;280;24128;-66
2023/11/07 04:12:08;;;;;;;2.30;1.70;;;;;;;9.49;100.00;100078.53;90407;280;137586;-68
2023/11/07 04:14:10;;;;;;;1.90;1.80;;;;;;;9.49;100.00;100082.09;88546;275;22702;-68
2023/11/07 04:16:14;;;;;;;1.90;1.20;;;;;;;9.48;100.00;100083.59;88480;273;137225;-66
2023/11/07 04:18:16;;;;;;;0.70;0.70;;;;;;;9.45;100.00;100087.23;88607;273;22533;-64
2023/11/07 04:20:18;;;;;;;1.30;0.80;;;;;;;9.41;100.00;100086.38;88404;280;137547;-65
2023/11/07 04:22:19;;;;;;;6.70;1.50;;;;;;;9.39;100.00;100090.94;88491;273;24095;-63
2023/11/07 04:24:21;;;;;;;1.30;1.10;;;;;;;9.37;100.00;100091.39;88468;280;137130;-66
2023/11/07 04:26:23;;;;;;;5.40;1.20;;;;;;;9.38;100.00;100092.30;88623;272;25321;-64
2023/11/07 04:28:26;;;;;;;2.70;2.40;;;;;;;9.37;100.00;100093.16;88432;280;136845;-65
2023/11/07 04:30:29;;;;;;;3.00;2.70;;;;;;;9.36;100.00;100090.45;88610;273;22539;-68
2023/11/07 04:32:34;;;;;;;3.50;2.10;;;;;;;9.35;100.00;100098.25;88470;273;137124;-64
2023/11/07 04:34:36;;;;;;;3.20;2.40;;;;;;;9.34;100.00;100100.03;88570;272;25543;-61
2023/11/07 04:36:40;;;;;;;4.30;1.80;;;;;;;9.35;100.00;100095.30;88453;273;136905;-63
2023/11/07 04:38:45;;;;;;;3.00;1.80;;;;;;;9.34;100.00;100099.23;88686;277;22545;-69
2023/11/07 04:40:49;;;;;;;2.50;1.70;;;;;;;9.31;100.00;100101.94;88439;279;136828;-61
2023/11/07 04:42:51;;;;;;;2.70;1.70;;;;;;;9.31;100.00;100104.14;88552;280;25210;-65
2023/11/07 04:44:53;;;;;;;4.40;2.50;;;;;;;9.29;100.00;100104.93;88485;280;137738;-65
2023/11/07 04:46:54;;;;;;;5.70;3.80;;;;;;;9.28;100.00;100111.38;88633;277;24386;-67
2023/11/07 04:48:56;;;;;;;10.50;4.70;;;;;;;9.28;100.00;100111.06;88513;280;136982;-64
2023/11/07 04:50:59;;;;;;;6.70;4.20;;;;;;;9.29;100.00;100113.37;88604;273;23606;-64
2023/11/07 04:53:04;;;;;;;4.20;2.60;;;;;;;9.25;100.00;100106.44;88557;273;136885;-64
2023/11/07 04:55:06;;;;;;;4.20;2.00;;;;;;;9.33;100.00;100120.88;88509;280;25862;-65
2023/11/07 04:57:08;;;;;;;3.30;1.40;;;;;;;9.35;100.00;100124.73;88505;277;138451;-66
2023/11/07 04:59:10;;;;;;;5.70;1.50;;;;;;;9.36;100.00;100135.79;88559;280;22593;-66
2023/11/07 05:01:15;;;;;;;1.20;0.70;;;;;;;9.38;100.00;100136.61;88293;275;137049;-63
2023/11/07 05:03:16;;;;;;;2.80;1.10;;;;;;;9.36;100.00;100127.12;88337;273;24095;-61
2023/11/07 05:05:23;;;;;;;1.20;1.00;;;;;;;9.37;100.00;100128.73;88325;273;136835;-62
2023/11/07 05:07:25;;;;;;;3.60;2.00;;;;;;;9.36;100.00;100133.29;88402;273;24170;-63
2023/11/07 05:09:27;;;;;;;5.30;1.10;;;;;;;9.33;100.00;100140.05;88352;273;136988;-65
2023/11/07 05:11:28;;;;;;;7.10;4.30;;;;;;;9.31;100.00;100141.90;88398;273;25232;-64
2023/11/07 05:13:30;;;;;;;9.00;5.00;;;;;;;9.32;100.00;100145.52;88408;276;136999;-63
2023/11/07 05:15:33;;;;;;;5.80;3.90;;;;;;;9.32;100.00;100147.21;88438;277;23312;-64
2023/11/07 05:17:35;;;;;;;4.50;3.00;;;;;;;9.36;100.00;100152.12;88498;280;136868;-63
2023/11/07 05:19:37;;;;;;;5.20;1.90;;;;;;;9.39;100.00;100152.48;88434;278;22693;-64
2023/11/07 05:21:39;;;;;;;3.00;1.60;;;;;;;9.46;100.00;100157.52;88266;273;137327;-62
2023/11/07 05:23:40;;;;;;;2.80;1.80;;;;;;;9.60;100.00;100155.05;88464;280;24167;-72
2023/11/07 05:25:42;;;;;;;3.40;2.40;;;;;;;9.82;100.00;100158.00;88357;280;136822;-67
2023/11/07 05:27:44;;;;;;;4.10;1.50;;;;;;;10.16;100.00;100162.83;88318;280;25397;-66
2023/11/07 05:29:47;;;;;;;2.50;1.30;;;;;;;10.51;100.00;100166.69;88353;277;137022;-66
2023/11/07 05:31:49;;;;;;;3.30;1.10;;;;;;;10.84;100.00;100171.47;88433;277;22545;-67
2023/11/07 05:33:51;;;;;;;2.10;1.40;;;;;;;11.14;100.00;100169.98;88494;280;137137;-71
2023/11/07 05:35:53;;;;;;;4.60;2.00;;;;;;;11.46;100.00;100170.64;88364;273;22538;-72
2023/11/07 05:37:55;;;;;;;8.50;5.10;;;;;;;11.73;100.00;100175.27;88267;279;137311;-69
2023/11/07 05:39:57;;;;;;;12.70;8.80;;;;;;;11.80;100.00;100174.08;88485;281;24052;-71
2023/11/07 05:41:59;;;;;;;14.70;9.10;;;;;;;11.70;100.00;100177.52;88578;278;138173;-72
2023/11/07 05:44:01;;;;;;;11.10;5.70;;;;;;;11.52;100.00;100179.67;88503;272;25109;-70
2023/11/07 05:46:04;;;;;;;5.30;3.50;;;;;;;11.35;100.00;100185.58;88467;273;136969;-73
2023/11/07 05:48:06;;;;;;;5.40;2.30;;;;;;;11.18;100.00;100197.30;91182;281;137656;-69
2023/11/07 05:50:10;;;;;;;3.00;2.20;;;;;;;11.02;100.00;100202.15;88935;277;22527;-71
2023/11/07 05:52:12;;;;;;;3.70;1.00;;;;;;;10.87;100.00;100206.15;88873;277;137430;-69
2023/11/07 05:54:15;;;;;;;1.50;1.10;;;;;;;10.74;100.00;100206.95;88448;273;25121;-71
2023/11/07 05:56:17;;;;;;;3.10;1.60;;;;;;;10.64;100.00;100212.28;88476;273;137182;-69
2023/11/07 05:58:20;;;;;;;11.30;2.10;;;;;;;10.54;100.00;100212.08;88525;278;25048;-66
2023/11/07 06:00:22;;;;;;;1.50;1.20;;;;;;;10.48;100.00;100219.44;88434;273;137472;-72
2023/11/07 06:02:24;;;;;;;4.10;2.00;;;;;;;10.42;100.00;100222.36;88450;273;25077;-73
2023/11/07 06:04:32;;;;;;;3.80;2.30;;;;;;;10.34;100.00;100224.17;88378;273;138410;-74
2023/11/07 06:06:34;;;;;;;5.80;2.40;;;;;;;10.28;100.00;100220.90;88516;277;22632;-76
2023/11/07 06:08:36;;;;;;;4.40;3.10;;;;;;;10.24;100.00;100219.86;88565;273;137246;-73
2023/11/07 06:10:40;;;;;;;3.30;2.80;;;;;;;10.20;100.00;100221.29;88462;277;24090;-81
2023/11/07 06:12:42;;;;;;;3.50;2.20;;;;;;;10.17;100.00;100221.86;88412;275;137816;-71
2023/11/07 06:14:44;;;;;;;2.40;1.60;;;;;;;10.11;100.00;100221.40;88658;276;23103;-74
2023/11/07 06:16:46;;;;;;;1.50;1.20;;;;;;;10.10;100.00;100225.27;88418;272;137174;-80
2023/11/07 06:18:48;;;;;;;2.80;1.30;;;;;;;10.09;100.00;100224.49;88508;272;24407;-73
2023/11/07 06:20:50;;;;;;;3.10;1.80;;;;;;;10.10;100.00;100222.98;88344;273;141195;-69
2023/11/07 06:22:52;;;;;;;3.40;1.40;;;;;;;10.12;100.00;100228.39;88720;273;25224;-72
2023/11/07 06:24:54;;;;;;;4.80;1.20;;;;;;;10.13;100.00;100232.36;88259;279;136715;-71
2023/11/07 06:26:56;;;;;;;1.10;1.00;;;;;;;10.15;100.00;100235.20;88527;278;25128;-72
2023/11/07 06:28:59;;;;;;;2.50;1.40;;;;;;;10.18;100.00;100236.89;88341;274;136947;-71
2023/11/07 06:31:00;;;;;;;1.80;0.90;;;;;;;10.22;100.00;100236.56;88439;279;24052;-73
2023/11/07 06:33:02;;;;;;;1.90;1.60;;;;;;;10.29;100.00;100238.73;88282;273;137190;-72
2023/11/07 06:35:06;;;;;;;1.50;0.90;;;;;;;10.37;100.00;100244.95;88590;280;22536;-73
2023/11/07 06:37:09;;;;;;;3.20;0.90;;;;;;;10.43;100.00;100242.80;88535;277;138179;-74
2023/11/07 06:39:11;;;;;;;2.50;1.70;;;;;;;10.45;100.00;100248.55;88567;276;25069;-72
2023/11/07 06:41:17;;;;;;;3.60;1.30;;;;;;;10.45;100.00;100253.16;88407;280;137248;-74
2023/11/07 06:43:19;;;;;;;4.50;1.30;;;;;;;10.47;100.00;100255.81;88432;273;25102;-74
2023/11/07 06:45:21;;;;;;;3.00;1.30;;;;;;;10.48;100.00;100262.77;88310;276;137006;-75
2023/11/07 06:47:24;;;;;;;1.90;1.40;;;;;;;10.52;100.00;100262.94;88538;272;24764;-76
2023/11/07 06:49:26;;;;;;;3.90;2.60;;;;;;;10.59;100.00;100261.84;88471;275;136751;-75
2023/11/07 06:51:28;;;;;;;2.50;2.00;;;;;;;10.66;100.00;100262.98;88711;283;25080;-72
2023/11/07 06:53:30;;;;;;;4.90;3.00;;;;;;;10.74;100.00;100268.52;88360;272;137044;-73
2023/11/07 06:55:34;;;;;;;3.50;2.60;;;;;;;10.76;100.00;100268.58;88471;272;22545;-72
2023/11/07 06:57:36;;;;;;;3.10;2.00;;;;;;;10.80;100.00;100273.60;88541;273;137016;-72
2023/11/07 06:59:38;;;;;;;4.20;2.10;;;;;;;10.85;100.00;100274.39;88505;273;22630;-71
2023/11/07 07:01:40;;;;;;;2.60;1.80;;;;;;;10.85;100.00;100277.59;88562;273;138184;-73
2023/11/07 07:03:41;;;;;;;3.40;1.50;;;;;;;10.86;100.00;100277.68;88414;273;25301;-74
2023/11/07 07:05:43;;;;;;;2.80;1.50;;;;;;;10.84;100.00;100268.98;88342;272;137198;-74
2023/11/07 07:07:45;;;;;;;4.30;1.30;;;;;;;10.95;100.00;100281.29;88473;271;24015;-73
2023/11/07 07:09:49;;;;;;;2.30;1.60;;;;;;;10.97;100.00;100283.73;88371;277;137042;-72
2023/11/07 07:11:51;;;;;;;4.70;2.20;;;;;;;10.96;100.00;100287.03;88343;282;22646;-71
2023/11/07 07:13:53;;;;;;;3.10;1.80;;;;;;;10.91;100.00;100283.23;88240;274;136949;-72
2023/11/07 07:15:59;;;;;;;1.90;1.60;;;;;;;11.04;100.00;100300.94;88563;271;22527;-71
2023/11/07 07:18:05;;;;;;;3.50;1.60;;;;;;;11.08;100.00;100300.48;88862;279;137645;-74
2023/11/07 07:20:14;;;;;;;5.50;2.20;;;;;;;11.10;100.00;100302.69;88816;273;137072;-74
2023/11/07 07:22:18;;;;;;;5.90;1.60;;;;;;;11.06;100.00;100289.31;88923;278;22594;-73
2023/11/07 07:24:27;;;;;;;4.30;1.60;;;;;;;11.20;100.00;100298.04;88384;274;137010;-76
2023/11/07 07:26:29;;;;;;;1.90;1.00;;;;;;;11.26;100.00;100294.14;88963;273;22533;-72
2023/11/07 07:28:33;;;;;;;4.20;1.10;;;;;;;11.26;100.00;100296.98;88540;273;137003;-73
2023/11/07 07:30:37;;;;;;;4.40;1.50;;;;;;;11.25;100.00;100293.15;88715;273;24127;-74
2023/11/07 07:32:41;;;;;;;2.50;1.60;;;;;;;11.24;100.00;100292.48;88676;277;136884;-74
2023/11/07 07:34:43;;;;;;;2.20;1.30;;;;;;;11.26;100.00;100296.14;88438;275;23166;-73
2023/11/07 07:36:44;;;;;;;3.80;1.50;;;;;;;11.28;100.00;100295.23;88561;273;138656;-72
2023/11/07 07:38:46;;;;;;;2.50;1.50;;;;;;;11.30;100.00;100289.86;88534;273;24623;-72
2023/11/07 07:40:49;;;;;;;7.20;4.00;;;;;;;11.43;100.00;100290.49;88389;273;137859;-73
2023/11/07 07:42:53;;;;;;;3.80;2.00;;;;;;;11.49;100.00;100289.66;88463;278;26292;-70
2023/11/07 07:44:58;;;;;;;9.60;4.20;;;;;;;11.57;100.00;100291.72;88802;274;137248;-68
2023/11/07 07:47:00;;;;;;;3.20;2.20;;;;;;;11.64;100.00;100295.34;88873;273;23373;-74
2023/11/07 07:49:10;;;;;;;2.10;1.40;;;;;;;11.70;100.00;100295.83;88514;274;137192;-73
2023/11/07 07:51:13;;;;;;;9.00;4.70;;;;;;;11.67;100.00;100289.98;88554;272;22621;-73
2023/11/07 07:53:16;;;;;;;4.20;1.80;;;;;;;11.78;100.00;100305.15;88500;273;136784;-71
2023/11/07 07:55:19;;;;;;;5.10;2.10;;;;;;;11.80;100.00;100304.38;88435;273;22538;-73
2023/11/07 07:57:38;;;;;;;9.80;3.10;;;;;;;11.81;100.00;100309.23;88407;273;136305;-74
2023/11/07 07:59:44;;;;;;;1.90;1.10;;;;;;;11.85;100.00;100310.48;88457;273;22797;-74
2023/11/07 08:01:46;;;;;;;0.90;0.60;;;;;;;11.88;100.00;100310.98;88179;275;137118;-73
2023/11/07 08:03:48;;;;;;;2.20;0.80;;;;;;;11.87;100.00;100309.65;88465;277;22527;-72
2023/11/07 08:05:51;;;;;;;2.30;0.50;;;;;;;11.87;100.00;100315.52;88416;273;136445;-75
2023/11/07 08:07:53;;;;;;;1.40;1.00;;;;;;;11.92;100.00;100319.93;88438;277;25318;-74
2023/11/07 08:09:55;;;;;;;4.70;1.40;;;;;;;11.99;100.00;100322.48;88380;273;136094;-73
2023/11/07 08:11:57;;;;;;;7.00;1.80;;;;;;;12.06;100.00;100322.21;89188;273;22522;-74
2023/11/07 08:13:58;;;;;;;3.10;1.70;;;;;;;12.15;100.00;100328.02;89078;281;136441;-75
2023/11/07 08:16:06;;;;;;;1.70;0.70;;;;;;;12.23;100.00;100329.31;89037;273;22483;-72
2023/11/07 08:18:12;;;;;;;4.80;1.00;;;;;;;12.33;100.00;100333.39;89264;280;25254;-72
2023/11/07 08:20:15;;;;;;;2.50;1.30;;;;;;;12.44;100.00;100334.83;89334;273;138783;-72
2023/11/07 08:22:18;;;;;;;3.00;1.10;;;;;;;12.54;100.00;100339.88;89316;273;22536;-67
2023/11/07 08:24:20;;;;;;;1.60;0.90;;;;;;;12.64;100.00;100340.73;90191;273;137325;-74
2023/11/07 08:26:22;;;;;;;3.80;1.20;;;;;;;12.73;100.00;100346.35;88678;272;25167;-66
2023/11/07 08:28:24;;;;;;;1.70;1.10;;;;;;;12.79;100.00;100348.88;88459;277;137986;-65
2023/11/07 08:30:26;;;;;;;3.30;1.60;;;;;;;12.84;100.00;100347.86;88523;277;22551;-74
2023/11/07 08:32:30;;;;;;;5.30;1.30;;;;;;;12.91;100.00;100349.10;88926;274;135884;-74
2023/11/07 08:34:33;;;;;;;2.30;2.10;;;;;;;12.98;100.00;100346.60;88607;271;22615;-71
2023/11/07 08:36:39;;;;;;;2.90;1.00;;;;;;;13.02;100.00;100348.86;89960;273;136365;-76
2023/11/07 08:38:52;;;;;;;2.60;1.50;;;;;;;13.05;100.00;100352.13;87877;273;821387;-78
2023/11/07 08:40:54;;;;;;;2.30;1.60;;;;;;;13.10;100.00;100351.40;88609;273;136811;-74
2023/11/07 08:42:55;;;;;;;2.40;1.50;;;;;;;13.17;100.00;100351.61;88485;273;23648;-77
2023/11/07 08:44:59;;;;;;;3.00;1.40;;;;;;;13.24;99.82;100357.52;88312;282;136472;-76
2023/11/07 08:47:02;;;;;;;2.50;1.10;;;;;;;13.29;99.28;100362.45;88583;273;22531;-76
2023/11/07 08:49:04;;;;;;;2.20;1.10;;;;;;;13.33;99.08;100364.62;88363;272;136250;-76
2023/11/07 08:51:06;;;;;;;0.70;0.50;;;;;;;13.35;98.30;100368.85;88496;273;22528;-75
2023/11/07 08:53:09;;;;;;;3.00;1.30;;;;;;;13.35;97.94;100370.26;88412;275;136799;-73
2023/11/07 08:55:13;;;;;;;5.80;1.90;;;;;;;13.37;98.36;100367.99;88506;273;26158;-75
2023/11/07 08:57:15;;;;;;;2.80;1.30;;;;;;;13.44;97.78;100369.55;88306;273;136296;-75
2023/11/07 08:59:17;;;;;;;5.20;1.10;;;;;;;13.51;97.76;100369.98;88454;273;22556;-73
2023/11/07 09:01:21;;;;;;;3.10;1.20;;;;;;;13.58;97.16;100366.50;88516;275;137140;-73
2023/11/07 09:03:23;;;;;;;1.50;1.00;;;;;;;13.63;96.73;100366.65;88471;272;22539;-75
2023/11/07 09:05:26;;;;;;;2.30;0.50;;;;;;;13.66;96.41;100367.89;88436;272;136318;-73
2023/11/07 09:07:27;;;;;;;1.70;0.70;;;;;;;13.64;95.30;100371.85;88472;280;25216;-74
2023/11/07 09:09:30;;;;;;;3.90;1.20;;;;;;;13.63;95.04;100370.20;88388;272;136337;-73
2023/11/07 09:11:32;;;;;;;2.10;0.70;;;;;;;13.66;94.90;100370.61;88380;272;25092;-75
2023/11/07 09:13:34;;;;;;;1.50;0.70;;;;;;;13.69;94.68;100374.29;88333;281;136178;-72
2023/11/07 09:15:36;;;;;;;2.70;0.70;;;;;;;13.73;95.01;100379.42;88431;277;24040;-74
2023/11/07 09:17:39;;;;;;;2.80;0.60;;;;;;;13.76;95.07;100375.95;88535;277;137565;-74
2023/11/07 09:19:41;;;;;;;2.70;0.60;;;;;;;13.77;94.24;100373.11;88654;277;22524;-72
2023/11/07 09:21:43;;;;;;;2.30;0.60;;;;;;;13.79;93.87;100375.80;88336;277;136961;-73
2023/11/07 09:23:45;;;;;;;2.30;0.50;;;;;;;13.81;93.73;100377.77;88496;271;22637;-72
2023/11/07 09:25:47;;;;;;;2.10;0.80;;;;;;;13.82;93.36;100380.33;88366;276;135960;-70
2023/11/07 09:27:51;;;;;;;1.90;0.50;;;;;;;13.83;93.12;100376.94;88563;277;21519;-69
2023/11/07 09:29:57;;;;;;;1.00;0.40;;;;;;;13.87;92.62;100373.42;88488;279;136169;-73
2023/11/07 09:32:03;;;;;;;0.70;0.40;;;;;;;13.89;92.48;100373.34;88956;280;22558;-78
2023/11/07 09:34:04;;;;;;;5.30;0.90;;;;;;;13.89;91.78;100370.00;88829;278;22534;-73